createdAt,value
2022-08-12T00:02:04.995Z,15.89
2022-08-12T00:07:26.308Z,15.78
2022-08-12T00:12:48.281Z,15.68
2022-08-12T00:18:09.488Z,15.63
2022-08-12T00:23:31.654Z,15.55
2022-08-12T00:28:53.912Z,15.40
2022-08-12T00:34:15.207Z,15.32
2022-08-12T00:39:38.509Z,15.38
2022-08-12T00:44:44.519Z,15.00
2022-08-12T00:49:50.176Z,14.79
2022-08-12T00:54:57.147Z,14.85
2022-08-12T01:00:03.330Z,14.65
2022-08-12T01:05:26.403Z,14.77
2022-08-12T01:10:49.114Z,14.74
2022-08-12T01:15:55.822Z,14.67
2022-08-12T01:21:12.876Z,14.74
2022-08-12T01:26:21.008Z,14.69
2022-08-12T01:31:24.554Z,14.59
2022-08-12T01:36:29.380Z,14.44
2022-08-12T01:41:39.912Z,14.33
2022-08-12T01:46:57.438Z,14.29
2022-08-12T01:52:20.930Z,14.24
2022-08-12T01:57:57.880Z,14.19
2022-08-12T02:03:17.984Z,14.08
2022-08-12T02:08:52.242Z,13.88
2022-08-12T02:14:11.360Z,13.86
2022-08-12T02:19:27.759Z,13.47
2022-08-12T02:24:33.233Z,13.48
2022-08-12T02:29:38.085Z,13.61
2022-08-12T02:34:41.394Z,13.68
2022-08-12T02:39:49.800Z,13.62
2022-08-12T02:44:56.823Z,13.67
2022-08-12T02:50:04.733Z,13.66
2022-08-12T02:55:28.911Z,13.32
2022-08-12T03:00:39.923Z,13.33
2022-08-12T03:05:49.763Z,13.32
2022-08-12T03:10:59.051Z,13.37
2022-08-12T03:16:07.713Z,13.30
2022-08-12T03:21:13.498Z,13.12
2022-08-12T03:26:16.540Z,13.10
2022-08-12T03:31:24.613Z,12.84
2022-08-12T03:36:29.497Z,12.96
2022-08-12T03:41:35.604Z,12.89
2022-08-12T03:47:00.703Z,12.88
2022-08-12T03:52:21.974Z,12.84
2022-08-12T03:57:42.630Z,12.53
2022-08-12T04:03:01.610Z,12.94
2022-08-12T04:08:05.528Z,12.87
2022-08-12T04:13:19.566Z,13.03
2022-08-12T04:18:24.651Z,13.04
2022-08-12T04:23:28.762Z,12.93
2022-08-12T04:28:31.853Z,12.72
2022-08-12T04:33:37.757Z,13.03
2022-08-12T04:38:41.263Z,13.84
2022-08-12T04:43:53.838Z,15.68
2022-08-12T04:49:06.712Z,17.22
2022-08-12T04:54:10.053Z,17.14
2022-08-12T04:59:17.172Z,16.89
2022-08-12T05:04:25.628Z,15.98
2022-08-12T05:10:01.062Z,15.91
2022-08-12T05:14:51.590Z,16.23
2022-08-12T05:19:57.434Z,16.59
2022-08-12T05:25:01.467Z,16.89
2022-08-12T05:30:09.176Z,16.73
2022-08-12T05:35:15.763Z,16.91
2022-08-12T05:40:19.003Z,17.18
2022-08-12T05:45:22.080Z,16.92
2022-08-12T05:50:26.752Z,17.48
2022-08-12T05:55:31.511Z,17.44
2022-08-12T06:00:35.816Z,17.56
2022-08-12T06:05:54.534Z,18.77
2022-08-12T06:10:58.839Z,19.55
2022-08-12T06:16:02.017Z,20.39
2022-08-12T06:21:07.363Z,20.35
2022-08-12T06:26:12.962Z,19.32
2022-08-12T06:31:26.961Z,20.17
2022-08-12T06:36:33.585Z,20.43
2022-08-12T06:42:05.008Z,21.08
2022-08-12T06:47:19.613Z,21.13
2022-08-12T06:52:25.116Z,20.96
2022-08-12T06:58:08.146Z,21.54
2022-08-12T07:02:53.062Z,21.38
2022-08-12T07:08:11.492Z,21.86
2022-08-12T07:13:14.522Z,20.40
2022-08-12T07:18:20.317Z,20.14
2022-08-12T07:23:24.778Z,19.78
2022-08-12T07:28:29.511Z,19.38
2022-08-12T07:33:33.056Z,19.71
2022-08-12T07:38:42.391Z,19.67
2022-08-12T07:43:47.892Z,20.10
2022-08-12T07:48:53.632Z,20.58
2022-08-12T07:54:02.837Z,20.77
2022-08-12T07:59:08.873Z,20.27
2022-08-12T08:04:29.206Z,21.43
2022-08-12T08:09:33.619Z,22.95
2022-08-12T08:14:37.000Z,23.30
2022-08-12T08:20:02.242Z,22.38
2022-08-12T08:25:04.611Z,21.08
2022-08-12T08:30:28.620Z,22.54
2022-08-12T08:35:47.008Z,22.80
2022-08-12T08:41:09.694Z,23.19
2022-08-12T08:46:14.464Z,22.99
2022-08-12T08:51:17.446Z,22.35
2022-08-12T08:56:22.002Z,21.80
2022-08-12T09:01:25.063Z,22.45
2022-08-12T09:12:11.062Z,23.03
2022-08-12T09:17:42.186Z,22.55
2022-08-12T09:22:49.063Z,23.28
2022-08-12T09:28:04.209Z,23.86
2022-08-12T09:33:14.978Z,24.26
2022-08-12T09:38:32.326Z,25.03
2022-08-12T09:44:00.810Z,25.37
2022-08-12T09:49:16.266Z,24.76
2022-08-12T09:54:33.054Z,24.77
2022-08-12T10:00:13.845Z,25.92
2022-08-12T10:05:02.388Z,26.22
2022-08-12T10:10:05.904Z,26.10
2022-08-12T10:15:15.249Z,24.82
2022-08-12T10:20:35.872Z,24.42
2022-08-12T10:26:36.647Z,24.27
2022-08-12T10:31:21.827Z,24.15
2022-08-12T10:36:40.103Z,23.28
2022-08-12T10:42:04.137Z,23.24
2022-08-12T10:47:25.906Z,23.56
2022-08-12T10:52:34.617Z,23.75
2022-08-12T10:58:15.304Z,23.33
2022-08-12T11:04:24.120Z,23.97
2022-08-12T11:08:33.708Z,24.23
2022-08-12T11:13:45.947Z,24.70
2022-08-12T11:18:55.512Z,25.48
2022-08-12T11:23:59.876Z,25.76
2022-08-12T11:29:05.936Z,24.25
2022-08-12T11:34:53.606Z,24.32
2022-08-12T11:45:11.330Z,26.19
2022-08-12T11:50:19.477Z,25.61
2022-08-12T11:55:23.296Z,25.15
2022-08-12T12:05:51.248Z,26.16
2022-08-12T12:10:55.563Z,26.40
2022-08-12T12:16:00.227Z,25.93
2022-08-12T12:21:08.386Z,25.76
2022-08-12T12:26:34.798Z,25.99
2022-08-12T12:32:10.335Z,26.64
2022-08-12T12:37:00.908Z,24.98
2022-08-12T12:42:42.498Z,25.04
2022-08-12T12:47:38.190Z,25.97
2022-08-12T12:52:42.772Z,24.85
2022-08-12T12:58:00.194Z,25.26
2022-08-12T13:03:03.873Z,25.50
2022-08-12T13:08:28.258Z,26.06
2022-08-12T13:14:07.152Z,26.17
2022-08-12T13:19:01.785Z,26.17
2022-08-12T13:24:10.339Z,26.01
2022-08-12T13:29:14.288Z,26.16
2022-08-12T13:34:29.742Z,26.32
2022-08-12T13:39:39.713Z,27.00
2022-08-12T13:44:43.101Z,27.07
2022-08-12T13:49:54.615Z,27.10
2022-08-12T13:55:00.291Z,26.97
2022-08-12T14:00:11.705Z,26.58
2022-08-12T14:05:39.129Z,26.49
2022-08-12T14:10:52.065Z,26.79
2022-08-12T14:15:57.510Z,26.62
2022-08-12T14:21:04.277Z,26.55
2022-08-12T14:26:12.004Z,26.51
2022-08-12T14:31:18.188Z,25.88
2022-08-12T14:36:24.039Z,26.03
2022-08-12T14:41:36.930Z,26.10
2022-08-12T14:46:57.764Z,26.91
2022-08-12T14:53:26.160Z,27.53
2022-08-12T14:57:33.815Z,27.32
2022-08-12T15:02:40.077Z,27.01
2022-08-12T15:07:51.101Z,26.90
2022-08-12T15:12:58.456Z,26.87
2022-08-12T15:18:02.462Z,26.57
2022-08-12T15:23:05.605Z,26.51
2022-08-12T15:28:25.059Z,26.90
2022-08-12T15:33:45.515Z,26.87
2022-08-12T15:38:50.456Z,26.50
2022-08-12T15:44:29.132Z,26.01
2022-08-12T15:49:20.052Z,26.35
2022-08-12T15:54:34.312Z,26.31
2022-08-12T16:00:03.951Z,26.79
2022-08-12T16:06:12.228Z,26.55
2022-08-12T16:10:31.107Z,26.60
2022-08-12T16:15:37.844Z,26.71
2022-08-12T16:20:46.481Z,26.41
2022-08-12T16:26:05.420Z,26.35
2022-08-12T16:31:22.650Z,26.55
2022-08-12T16:36:26.875Z,26.38
2022-08-12T16:41:39.939Z,26.24
2022-08-12T16:46:57.912Z,26.33
2022-08-12T16:52:01.278Z,26.03
2022-08-12T16:57:09.574Z,25.96
2022-08-12T17:02:31.392Z,25.82
2022-08-12T17:07:38.256Z,25.62
2022-08-12T17:12:46.981Z,25.41
2022-08-12T17:18:38.860Z,25.34
2022-08-12T17:23:16.959Z,25.21
2022-08-12T17:28:21.322Z,24.98
2022-08-12T17:33:27.301Z,25.05
2022-08-12T17:38:30.828Z,25.04
2022-08-12T17:43:56.752Z,24.78
2022-08-12T17:48:59.342Z,24.64
2022-08-12T17:54:10.937Z,24.62
2022-08-12T17:59:47.363Z,24.57
2022-08-12T18:05:04.858Z,24.46
2022-08-12T18:10:07.412Z,24.23
2022-08-12T18:15:26.300Z,24.09
2022-08-12T18:20:45.076Z,23.92
2022-08-12T18:26:15.416Z,23.72
2022-08-12T18:31:23.305Z,23.56
2022-08-12T18:36:29.455Z,23.41
2022-08-12T18:41:35.903Z,23.23
2022-08-12T18:46:54.421Z,23.10
2022-08-12T18:52:04.375Z,22.96
2022-08-12T18:57:20.009Z,22.71
2022-08-12T19:02:33.858Z,22.63
2022-08-12T19:07:49.817Z,22.46
2022-08-12T19:13:23.751Z,22.32
2022-08-12T19:18:29.529Z,22.17
2022-08-12T19:23:35.937Z,22.00
2022-08-12T19:28:39.212Z,21.91
2022-08-12T19:33:56.124Z,21.81
2022-08-12T19:39:15.212Z,21.62
2022-08-12T19:44:27.518Z,21.57
2022-08-12T19:49:30.901Z,21.40
2022-08-12T19:54:36.825Z,21.27
2022-08-12T19:59:43.225Z,21.19
2022-08-12T20:06:03.917Z,21.09
2022-08-12T20:10:36.311Z,20.63
2022-08-12T20:15:45.104Z,20.69
2022-08-12T20:20:48.559Z,20.60
2022-08-12T20:26:01.975Z,20.48
2022-08-12T20:31:13.652Z,20.40
2022-08-12T20:36:40.606Z,20.15
2022-08-12T20:41:43.652Z,20.09
2022-08-12T20:46:46.734Z,19.94
2022-08-12T20:51:56.135Z,19.93
2022-08-12T20:57:01.965Z,19.72
2022-08-12T21:02:12.704Z,19.63
2022-08-12T21:07:16.922Z,19.55
2022-08-12T21:12:33.009Z,19.38
2022-08-12T21:18:07.978Z,19.18
2022-08-12T21:23:05.700Z,19.08
2022-08-12T21:28:10.641Z,18.91
2022-08-12T21:33:16.948Z,18.77
2022-08-12T21:38:20.151Z,18.73
2022-08-12T21:43:29.115Z,18.56
2022-08-12T21:48:48.539Z,18.45
2022-08-12T21:54:06.911Z,18.35
2022-08-12T21:59:14.480Z,18.17
2022-08-12T22:04:36.338Z,18.17
2022-08-12T22:09:42.703Z,18.03
2022-08-12T22:14:48.875Z,17.92
2022-08-12T22:19:51.857Z,17.85
2022-08-12T22:24:58.495Z,17.82
2022-08-12T22:30:19.964Z,17.68
2022-08-12T22:35:55.636Z,17.67
2022-08-12T22:40:58.470Z,17.41
2022-08-12T22:46:23.521Z,17.35
2022-08-12T22:52:00.098Z,17.30
2022-08-12T22:56:56.563Z,17.23
2022-08-12T23:02:02.397Z,16.86
2022-08-12T23:07:07.314Z,17.00
2022-08-12T23:12:10.882Z,16.92
2022-08-12T23:17:39.989Z,16.79
2022-08-12T23:22:56.072Z,16.76
2022-08-12T23:28:29.816Z,16.73
2022-08-12T23:34:01.494Z,16.66
2022-08-12T23:39:01.943Z,16.57
2022-08-12T23:44:07.083Z,16.47
2022-08-12T23:49:15.136Z,16.38
2022-08-12T23:54:39.058Z,16.34
2022-08-12T23:59:55.377Z,16.16
